Time;durP1;ratioP1;P1;durP2;ratioP2;P2;SDS_P1;SDS_P2;PMS_P1;PMS_P2;Temp;Humidity;BMP_temperature;BMP_pressure;BME280_temperature;BME280_humidity;BME280_pressure;Samples;Min_cycle;Max_cycle;Signal;HPM_P1;HPM_P2
2023/03/18 00:00:41;;;;;;;8.23;5.47;;;;;;;;;;5096067;28;20447;-65
2023/03/18 00:03:08;;;;;;;7.27;5.00;;;;;;;;;;5096324;28;20450;-64
2023/03/18 00:05:36;;;;;;;5.67;5.00;;;;;;;;;;5096247;28;20451;-64
2023/03/18 00:08:04;;;;;;;6.57;4.70;;;;;;;;;;5096226;28;20836;-64
2023/03/18 00:10:31;;;;;;;5.43;3.97;;;;;;;;;;5096095;28;20482;-64
2023/03/18 00:12:59;;;;;;;6.07;4.80;;;;;;;;;;5096020;28;20791;-64
2023/03/18 00:15:26;;;;;;;4.63;4.00;;;;;;;;;;5095954;28;20458;-65
2023/03/18 00:17:53;;;;;;;5.50;4.37;;;;;;;;;;5096015;28;20910;-64
2023/03/18 00:20:27;;;;;;;7.53;5.30;;;;;;;;;;5095959;28;20475;-65
2023/03/18 00:22:56;;;;;;;5.37;4.90;;;;;;;;;;5095999;28;20495;-64
2023/03/18 00:25:24;;;;;;;5.73;4.13;;;;;;;;;;5095792;28;20450;-64
2023/03/18 00:27:51;;;;;;;5.27;4.77;;;;;;;;;;5095878;28;20541;-64
2023/03/18 00:30:18;;;;;;;5.77;4.27;;;;;;;;;;5095781;28;20827;-64
2023/03/18 00:32:46;;;;;;;13.67;5.07;;;;;;;;;;5095467;28;20974;-64
2023/03/18 00:35:13;;;;;;;6.37;4.10;;;;;;;;;;5095771;28;20443;-64
2023/03/18 00:37:41;;;;;;;5.07;4.17;;;;;;;;;;5095613;28;20981;-64
2023/03/18 00:40:16;;;;;;;7.13;4.70;;;;;;;;;;5095589;28;20451;-64
2023/03/18 00:42:46;;;;;;;5.97;4.17;;;;;;;;;;5095429;28;20500;-64
2023/03/18 00:45:14;;;;;;;4.73;3.83;;;;;;;;;;5095555;28;20450;-64
2023/03/18 00:47:42;;;;;;;7.00;4.30;;;;;;;;;;5095490;28;20479;-64
2023/03/18 00:50:10;;;;;;;7.90;4.53;;;;;;;;;;5095229;28;20455;-64
2023/03/18 00:52:38;;;;;;;5.50;4.20;;;;;;;;;;5095315;28;20533;-64
2023/03/18 00:55:06;;;;;;;4.73;4.30;;;;;;;;;;5095279;28;20966;-64
2023/03/18 00:57:34;;;;;;;5.27;4.63;;;;;;;;;;5095344;28;20487;-65
2023/03/18 01:00:01;;;;;;;4.90;4.37;;;;;;;;;;5095094;28;20450;-64
2023/03/18 01:02:28;;;;;;;4.90;4.00;;;;;;;;;;5095098;28;20452;-64
2023/03/18 01:04:56;;;;;;;5.27;4.50;;;;;;;;;;5095035;28;20451;-64
2023/03/18 01:07:23;;;;;;;4.83;4.30;;;;;;;;;;5095099;28;20466;-64
2023/03/18 01:09:50;;;;;;;6.67;3.97;;;;;;;;;;5095159;28;20447;-64
2023/03/18 01:12:17;;;;;;;6.47;4.27;;;;;;;;;;5095037;28;20478;-64
2023/03/18 01:14:46;;;;;;;5.60;4.00;;;;;;;;;;5095227;28;20454;-64
2023/03/18 01:17:14;;;;;;;4.60;3.53;;;;;;;;;;5094708;28;20846;-65
2023/03/18 01:19:42;;;;;;;4.43;4.03;;;;;;;;;;5094720;28;20445;-64
2023/03/18 01:22:09;;;;;;;5.53;4.97;;;;;;;;;;5094608;28;20471;-64
2023/03/18 01:24:36;;;;;;;6.00;4.07;;;;;;;;;;5094758;28;20445;-65
2023/03/18 01:27:05;;;;;;;7.17;4.60;;;;;;;;;;5094827;28;20446;-64
2023/03/18 01:29:32;;;;;;;7.30;4.50;;;;;;;;;;5094579;28;20447;-64
2023/03/18 01:32:00;;;;;;;6.37;4.70;;;;;;;;;;5094607;28;20787;-64
2023/03/18 01:34:27;;;;;;;4.83;4.20;;;;;;;;;;5094379;28;20443;-64
2023/03/18 01:36:54;;;;;;;4.67;4.17;;;;;;;;;;5094522;28;20470;-64
2023/03/18 01:39:22;;;;;;;6.50;3.90;;;;;;;;;;5094502;28;20963;-64
2023/03/18 01:41:49;;;;;;;6.13;4.67;;;;;;;;;;5094622;28;20455;-64
2023/03/18 01:44:18;;;;;;;5.73;4.37;;;;;;;;;;5094223;28;20489;-64
2023/03/18 01:46:45;;;;;;;4.60;4.00;;;;;;;;;;5094135;28;20942;-64
2023/03/18 01:49:16;;;;;;;5.97;4.67;;;;;;;;;;5094096;28;20481;-65
2023/03/18 01:51:46;;;;;;;6.60;4.30;;;;;;;;;;5094410;28;21035;-64
2023/03/18 01:54:13;;;;;;;4.53;3.43;;;;;;;;;;5094247;28;20522;-64
2023/03/18 01:56:41;;;;;;;5.73;3.90;;;;;;;;;;5094084;28;20447;-64
2023/03/18 01:59:10;;;;;;;4.20;3.77;;;;;;;;;;5093899;28;20533;-64
2023/03/18 02:01:40;;;;;;;4.27;3.80;;;;;;;;;;5093835;28;20447;-64
2023/03/18 02:04:09;;;;;;;5.10;3.90;;;;;;;;;;5094078;28;20479;-64
2023/03/18 02:06:37;;;;;;;4.90;3.70;;;;;;;;;;5094051;28;20447;-64
2023/03/18 02:09:04;;;;;;;4.60;4.00;;;;;;;;;;5093843;28;20968;-64
2023/03/18 02:11:32;;;;;;;6.73;4.20;;;;;;;;;;5093812;28;20457;-64
2023/03/18 02:14:00;;;;;;;5.10;3.93;;;;;;;;;;5093282;28;20447;-65
2023/03/18 02:16:29;;;;;;;5.10;3.97;;;;;;;;;;5093746;28;20538;-64
2023/03/18 02:18:58;;;;;;;4.47;4.07;;;;;;;;;;5093783;28;20455;-64
2023/03/18 02:21:32;;;;;;;7.43;4.07;;;;;;;;;;5093545;28;20447;-64
2023/03/18 02:24:03;;;;;;;4.20;3.80;;;;;;;;;;5093552;28;20443;-64
2023/03/18 02:26:34;;;;;;;7.20;4.00;;;;;;;;;;5093485;28;20451;-64
2023/03/18 02:29:05;;;;;;;5.73;4.20;;;;;;;;;;5093648;28;20446;-64
2023/03/18 02:31:32;;;;;;;6.53;4.10;;;;;;;;;;5093375;28;20454;-65
2023/03/18 02:34:00;;;;;;;4.30;3.90;;;;;;;;;;5093472;28;20453;-64
2023/03/18 02:36:29;;;;;;;4.37;3.37;;;;;;;;;;5093313;28;20458;-64
2023/03/18 02:38:59;;;;;;;3.90;3.60;;;;;;;;;;5093277;28;20569;-64
2023/03/18 02:41:27;;;;;;;5.27;4.00;;;;;;;;;;5093753;28;20504;-64
2023/03/18 02:43:54;;;;;;;7.40;3.80;;;;;;;;;;5093541;28;20810;-64
2023/03/18 02:46:27;;;;;;;4.60;3.53;;;;;;;;;;5093467;28;20451;-64
2023/03/18 02:48:55;;;;;;;4.40;3.60;;;;;;;;;;5093387;28;20455;-64
2023/03/18 02:51:22;;;;;;;7.10;4.40;;;;;;;;;;5093178;28;20537;-64
2023/03/18 02:53:50;;;;;;;6.67;4.57;;;;;;;;;;5093104;28;20496;-64
2023/03/18 02:56:17;;;;;;;5.17;3.63;;;;;;;;;;5093375;28;20504;-64
2023/03/18 02:58:44;;;;;;;4.20;3.80;;;;;;;;;;5093218;28;20562;-64
2023/03/18 03:01:11;;;;;;;6.70;4.30;;;;;;;;;;5093094;28;20483;-64
2023/03/18 03:03:40;;;;;;;5.10;3.30;;;;;;;;;;5093214;28;20500;-64
2023/03/18 03:06:07;;;;;;;4.17;3.60;;;;;;;;;;5093035;28;20821;-64
2023/03/18 03:08:35;;;;;;;6.77;3.73;;;;;;;;;;5093242;28;20809;-64
2023/03/18 03:11:03;;;;;;;8.00;3.57;;;;;;;;;;5093080;28;20450;-64
2023/03/18 03:13:30;;;;;;;5.30;4.10;;;;;;;;;;5093442;28;20449;-65
2023/03/18 03:15:57;;;;;;;4.17;3.60;;;;;;;;;;5093073;28;20520;-64
2023/03/18 03:18:25;;;;;;;4.57;3.50;;;;;;;;;;5092793;28;20497;-64
2023/03/18 03:20:53;;;;;;;5.60;3.70;;;;;;;;;;5092811;28;20451;-64
2023/03/18 03:23:20;;;;;;;4.47;3.87;;;;;;;;;;5093030;28;20485;-64
2023/03/18 03:25:48;;;;;;;4.63;4.00;;;;;;;;;;5096242;28;20546;-64
2023/03/18 03:28:15;;;;;;;5.30;3.07;;;;;;;;;;5097231;28;20994;-64
2023/03/18 03:30:42;;;;;;;4.60;3.73;;;;;;;;;;5097311;28;20462;-64
2023/03/18 03:33:10;;;;;;;6.70;3.90;;;;;;;;;;5097547;28;20453;-65
2023/03/18 03:35:37;;;;;;;4.93;3.50;;;;;;;;;;5097013;28;20482;-65
2023/03/18 03:38:05;;;;;;;4.57;3.67;;;;;;;;;;5097177;28;20478;-65
2023/03/18 03:40:32;;;;;;;4.17;3.50;;;;;;;;;;5097042;28;20447;-65
2023/03/18 03:42:59;;;;;;;6.37;3.57;;;;;;;;;;5096963;28;20451;-64
2023/03/18 03:45:27;;;;;;;4.20;3.60;;;;;;;;;;5096763;28;20447;-64
2023/03/18 03:47:53;;;;;;;4.20;3.90;;;;;;;;;;5096558;28;20451;-64
2023/03/18 03:50:21;;;;;;;5.40;3.50;;;;;;;;;;5096755;28;20546;-64
2023/03/18 03:52:48;;;;;;;4.17;3.80;;;;;;;;;;5096710;28;20454;-65
2023/03/18 03:55:19;;;;;;;6.90;4.50;;;;;;;;;;5096618;28;20823;-64
2023/03/18 03:57:46;;;;;;;3.90;3.60;;;;;;;;;;5096496;28;20466;-65
2023/03/18 04:00:15;;;;;;;7.50;3.80;;;;;;;;;;5096377;28;20459;-64
2023/03/18 04:02:43;;;;;;;5.73;4.07;;;;;;;;;;5096397;28;20486;-64
2023/03/18 04:05:11;;;;;;;4.80;4.10;;;;;;;;;;5096495;28;20525;-64
2023/03/18 04:07:38;;;;;;;4.43;3.80;;;;;;;;;;5096465;28;20818;-64
2023/03/18 04:10:05;;;;;;;4.40;4.00;;;;;;;;;;5096226;28;20774;-64
2023/03/18 04:12:33;;;;;;;4.50;3.97;;;;;;;;;;5096314;28;20447;-64
2023/03/18 04:15:00;;;;;;;6.40;4.00;;;;;;;;;;5096087;28;20453;-64
2023/03/18 04:17:28;;;;;;;4.50;4.10;;;;;;;;;;5095422;28;20569;-64
2023/03/18 04:19:55;;;;;;;3.83;3.53;;;;;;;;;;5094767;28;20464;-64
2023/03/18 04:22:22;;;;;;;8.70;4.07;;;;;;;;;;5094825;28;20479;-64
2023/03/18 04:24:49;;;;;;;4.57;3.40;;;;;;;;;;5094985;28;20946;-64
2023/03/18 04:27:17;;;;;;;4.33;3.30;;;;;;;;;;5094990;28;20541;-64
2023/03/18 04:29:45;;;;;;;5.93;4.20;;;;;;;;;;5094579;28;20458;-65
2023/03/18 04:32:13;;;;;;;4.30;3.83;;;;;;;;;;5094816;28;20451;-64
2023/03/18 04:34:39;;;;;;;4.90;3.60;;;;;;;;;;5094716;28;20451;-65
2023/03/18 04:37:07;;;;;;;5.13;3.90;;;;;;;;;;5094248;28;21008;-64
2023/03/18 04:39:34;;;;;;;8.00;4.10;;;;;;;;;;5094489;28;20490;-64
2023/03/18 04:42:01;;;;;;;4.13;3.70;;;;;;;;;;5094443;28;20809;-64
2023/03/18 04:44:28;;;;;;;4.87;4.40;;;;;;;;;;5094656;28;20533;-64
2023/03/18 04:46:56;;;;;;;7.70;4.10;;;;;;;;;;5094593;28;20879;-64
2023/03/18 04:49:24;;;;;;;6.07;4.30;;;;;;;;;;5094405;28;20450;-65
2023/03/18 04:51:51;;;;;;;6.47;4.40;;;;;;;;;;5094368;28;20530;-64
2023/03/18 04:54:18;;;;;;;4.30;3.90;;;;;;;;;;5094360;28;20446;-64
2023/03/18 04:56:45;;;;;;;4.00;3.60;;;;;;;;;;5094127;28;20839;-64
2023/03/18 04:59:12;;;;;;;3.60;3.30;;;;;;;;;;5094252;28;20485;-65
2023/03/18 05:01:39;;;;;;;4.57;4.17;;;;;;;;;;5094178;28;20541;-64
2023/03/18 05:04:07;;;;;;;7.03;4.87;;;;;;;;;;5094273;28;20801;-64
2023/03/18 05:06:34;;;;;;;7.50;3.93;;;;;;;;;;5094204;28;20451;-64
2023/03/18 05:09:01;;;;;;;4.47;4.07;;;;;;;;;;5093951;28;20446;-64
2023/03/18 05:11:28;;;;;;;5.47;3.77;;;;;;;;;;5094251;28;20451;-64
2023/03/18 05:13:55;;;;;;;4.53;4.10;;;;;;;;;;5094358;28;20447;-64
2023/03/18 05:16:23;;;;;;;3.90;3.50;;;;;;;;;;5060234;28;959621;-65
2023/03/18 05:18:50;;;;;;;5.10;4.20;;;;;;;;;;5095142;28;21012;-64
2023/03/18 05:21:19;;;;;;;4.23;3.80;;;;;;;;;;5094687;28;20957;-64
2023/03/18 05:23:46;;;;;;;5.73;4.03;;;;;;;;;;5094788;28;20501;-64
2023/03/18 05:26:13;;;;;;;4.67;4.00;;;;;;;;;;5095032;28;20451;-64
2023/03/18 05:28:40;;;;;;;4.60;4.20;;;;;;;;;;5094942;28;20542;-64
2023/03/18 05:31:07;;;;;;;6.00;4.73;;;;;;;;;;5094744;28;20534;-65
2023/03/18 05:33:34;;;;;;;9.40;4.43;;;;;;;;;;5094741;28;20454;-64
2023/03/18 05:36:01;;;;;;;4.20;3.80;;;;;;;;;;5094476;28;20455;-64
2023/03/18 05:38:30;;;;;;;4.37;3.97;;;;;;;;;;5094409;28;20540;-65
2023/03/18 05:40:57;;;;;;;5.73;4.37;;;;;;;;;;5094560;28;20801;-64
2023/03/18 05:43:25;;;;;;;3.90;3.53;;;;;;;;;;5094632;28;20483;-64
2023/03/18 05:45:52;;;;;;;5.40;3.80;;;;;;;;;;5094478;28;20797;-64
2023/03/18 05:48:18;;;;;;;5.63;4.60;;;;;;;;;;5093519;28;20451;-64
2023/03/18 05:50:46;;;;;;;4.77;4.33;;;;;;;;;;5094084;28;20439;-64
2023/03/18 05:53:15;;;;;;;7.50;4.80;;;;;;;;;;5094143;28;20450;-64
2023/03/18 05:55:43;;;;;;;4.07;3.60;;;;;;;;;;5094131;28;20930;-64
2023/03/18 05:58:11;;;;;;;4.90;4.00;;;;;;;;;;5094174;28;20569;-64
2023/03/18 06:00:39;;;;;;;5.43;4.00;;;;;;;;;;5094052;28;20451;-64
2023/03/18 06:03:06;;;;;;;4.97;4.00;;;;;;;;;;5094116;28;20497;-64
2023/03/18 06:05:32;;;;;;;4.03;3.67;;;;;;;;;;5093945;28;20945;-64
2023/03/18 06:08:00;;;;;;;4.50;4.10;;;;;;;;;;5094329;28;20443;-65
2023/03/18 06:10:28;;;;;;;4.93;4.20;;;;;;;;;;5093909;28;20542;-64
2023/03/18 06:12:56;;;;;;;7.77;4.57;;;;;;;;;;5093912;28;20449;-64
2023/03/18 06:15:24;;;;;;;5.40;4.40;;;;;;;;;;5093919;28;20950;-64
2023/03/18 06:17:51;;;;;;;5.10;3.70;;;;;;;;;;5093858;28;20475;-64
2023/03/18 06:20:19;;;;;;;4.20;3.70;;;;;;;;;;5093762;28;20537;-64
2023/03/18 06:22:48;;;;;;;6.83;4.37;;;;;;;;;;5093828;28;20479;-64
2023/03/18 06:25:15;;;;;;;5.83;3.80;;;;;;;;;;5093745;28;20530;-64
2023/03/18 06:27:42;;;;;;;4.80;3.87;;;;;;;;;;5093719;28;20469;-64
2023/03/18 06:30:12;;;;;;;4.73;3.90;;;;;;;;;;5093431;28;20447;-64
2023/03/18 06:32:40;;;;;;;8.60;4.70;;;;;;;;;;5093508;28;20496;-64
2023/03/18 06:35:07;;;;;;;5.77;4.50;;;;;;;;;;5093736;28;20470;-65
2023/03/18 06:37:34;;;;;;;4.67;3.83;;;;;;;;;;5093347;28;20447;-64
2023/03/18 06:40:01;;;;;;;5.33;4.00;;;;;;;;;;5093384;28;20489;-64
2023/03/18 06:42:28;;;;;;;5.30;4.60;;;;;;;;;;5093418;28;20490;-64
2023/03/18 06:44:55;;;;;;;7.63;3.73;;;;;;;;;;5093326;28;20965;-64
2023/03/18 06:47:23;;;;;;;7.30;4.23;;;;;;;;;;5093758;28;20530;-64
2023/03/18 06:49:50;;;;;;;5.90;4.60;;;;;;;;;;5093278;28;20541;-64
2023/03/18 06:52:18;;;;;;;5.30;3.87;;;;;;;;;;5093168;28;20443;-64
2023/03/18 06:54:45;;;;;;;4.77;4.10;;;;;;;;;;5093248;28;20446;-64
2023/03/18 06:57:12;;;;;;;7.13;4.47;;;;;;;;;;5093143;28;20450;-64
2023/03/18 06:59:39;;;;;;;6.13;4.40;;;;;;;;;;5092808;28;20485;-64
2023/03/18 07:02:07;;;;;;;5.90;4.97;;;;;;;;;;5093343;28;20571;-64
2023/03/18 07:04:35;;;;;;;9.13;4.83;;;;;;;;;;5093484;28;20538;-64
2023/03/18 07:07:03;;;;;;;5.07;3.93;;;;;;;;;;5093227;28;20939;-64
2023/03/18 07:09:32;;;;;;;5.10;4.37;;;;;;;;;;5092983;28;20468;-64
2023/03/18 07:11:59;;;;;;;4.30;3.77;;;;;;;;;;5092866;28;20447;-65
2023/03/18 07:14:27;;;;;;;4.93;3.83;;;;;;;;;;5092997;28;20446;-64
2023/03/18 07:16:54;;;;;;;8.20;4.60;;;;;;;;;;5092969;28;20557;-64
2023/03/18 07:19:21;;;;;;;4.77;4.33;;;;;;;;;;5092818;28;20997;-64
2023/03/18 07:21:50;;;;;;;4.27;3.87;;;;;;;;;;5092997;28;20447;-64
2023/03/18 07:24:19;;;;;;;6.07;4.40;;;;;;;;;;5092881;28;21013;-64
2023/03/18 07:26:48;;;;;;;4.30;3.90;;;;;;;;;;5092817;28;20458;-64
2023/03/18 07:29:15;;;;;;;7.27;5.50;;;;;;;;;;5092892;28;20481;-64
2023/03/18 07:31:42;;;;;;;10.40;5.00;;;;;;;;;;5092860;28;20453;-64
2023/03/18 07:34:10;;;;;;;5.30;4.67;;;;;;;;;;5092901;28;20458;-64
2023/03/18 07:36:37;;;;;;;5.67;5.13;;;;;;;;;;5092899;28;20451;-64
2023/03/18 07:39:06;;;;;;;6.93;4.10;;;;;;;;;;5092730;28;20845;-64
2023/03/18 07:41:32;;;;;;;7.50;5.20;;;;;;;;;;5092821;28;20856;-64
2023/03/18 07:43:59;;;;;;;6.20;4.77;;;;;;;;;;5092905;28;20443;-64
2023/03/18 07:46:27;;;;;;;5.27;4.20;;;;;;;;;;5092770;28;21009;-64
2023/03/18 07:48:54;;;;;;;6.37;4.63;;;;;;;;;;5092880;28;20818;-64
2023/03/18 07:51:21;;;;;;;6.67;4.10;;;;;;;;;;5092743;28;20451;-64
2023/03/18 07:53:49;;;;;;;9.30;4.30;;;;;;;;;;5092574;28;20447;-64
2023/03/18 07:56:17;;;;;;;4.63;4.13;;;;;;;;;;5093032;28;20449;-64
2023/03/18 07:58:44;;;;;;;4.50;4.03;;;;;;;;;;5092612;28;20554;-64
2023/03/18 08:01:14;;;;;;;5.60;4.57;;;;;;;;;;5092508;28;20450;-64
2023/03/18 08:03:42;;;;;;;6.70;4.90;;;;;;;;;;5092609;28;20451;-64
2023/03/18 08:06:10;;;;;;;4.60;4.20;;;;;;;;;;5092787;28;20742;-64
2023/03/18 08:08:37;;;;;;;6.23;4.47;;;;;;;;;;5092636;28;20857;-64
2023/03/18 08:11:04;;;;;;;5.03;4.03;;;;;;;;;;5094291;28;20914;-64
2023/03/18 08:13:32;;;;;;;4.20;3.90;;;;;;;;;;5096288;28;20447;-65
2023/03/18 08:15:59;;;;;;;5.33;4.83;;;;;;;;;;5096193;28;20447;-64
2023/03/18 08:18:26;;;;;;;5.40;4.93;;;;;;;;;;5095998;28;20977;-65
2023/03/18 08:20:54;;;;;;;5.60;4.50;;;;;;;;;;5095836;28;20795;-64
2023/03/18 08:23:21;;;;;;;6.73;4.70;;;;;;;;;;5096175;28;20512;-65
2023/03/18 08:25:48;;;;;;;5.23;4.57;;;;;;;;;;5096040;28;20537;-64
2023/03/18 08:28:15;;;;;;;5.27;4.77;;;;;;;;;;5096083;28;20446;-64
2023/03/18 08:30:45;;;;;;;8.97;4.60;;;;;;;;;;5095710;28;20446;-64
2023/03/18 08:33:12;;;;;;;5.80;5.20;;;;;;;;;;5095761;28;20810;-64
2023/03/18 08:35:40;;;;;;;6.80;5.10;;;;;;;;;;5095696;28;20533;-64
2023/03/18 08:38:08;;;;;;;9.57;5.10;;;;;;;;;;5095793;28;20451;-64
2023/03/18 08:40:34;;;;;;;5.60;5.00;;;;;;;;;;5095633;28;20483;-64
2023/03/18 08:43:01;;;;;;;7.33;4.97;;;;;;;;;;5095657;28;20812;-64
2023/03/18 08:45:28;;;;;;;8.17;5.10;;;;;;;;;;5095987;28;20446;-64
2023/03/18 08:47:57;;;;;;;6.73;5.33;;;;;;;;;;5095362;28;20814;-64
2023/03/18 08:50:27;;;;;;;6.80;5.13;;;;;;;;;;5095234;28;20450;-64
2023/03/18 08:52:55;;;;;;;5.47;4.90;;;;;;;;;;5095581;28;20445;-64
2023/03/18 08:55:22;;;;;;;5.40;4.80;;;;;;;;;;5095780;28;20443;-64
2023/03/18 08:57:50;;;;;;;5.73;4.63;;;;;;;;;;5095406;28;20806;-64
2023/03/18 09:00:17;;;;;;;6.47;5.20;;;;;;;;;;5095046;28;20483;-64
2023/03/18 09:02:44;;;;;;;5.60;5.00;;;;;;;;;;5095236;28;20549;-64
2023/03/18 09:05:13;;;;;;;6.00;4.40;;;;;;;;;;5094953;28;20946;-64
2023/03/18 09:07:40;;;;;;;4.80;4.30;;;;;;;;;;5095208;28;20610;-64
2023/03/18 09:10:08;;;;;;;6.00;4.63;;;;;;;;;;5095274;28;20453;-65
2023/03/18 09:12:35;;;;;;;8.63;5.27;;;;;;;;;;5094953;28;20447;-64
2023/03/18 09:15:03;;;;;;;6.17;5.57;;;;;;;;;;5094777;28;20443;-64
2023/03/18 09:17:30;;;;;;;7.37;4.50;;;;;;;;;;5094882;28;20474;-64
2023/03/18 09:19:57;;;;;;;7.70;4.33;;;;;;;;;;5094804;28;20510;-64
2023/03/18 09:22:26;;;;;;;5.77;4.60;;;;;;;;;;5094101;28;20451;-64
2023/03/18 09:24:53;;;;;;;4.37;3.97;;;;;;;;;;5094709;28;20446;-64
2023/03/18 09:27:20;;;;;;;5.50;5.00;;;;;;;;;;5094786;28;20442;-64
2023/03/18 09:29:47;;;;;;;4.60;4.00;;;;;;;;;;5094406;28;20469;-64
2023/03/18 09:32:15;;;;;;;5.50;3.60;;;;;;;;;;5094690;28;20450;-64
2023/03/18 09:34:43;;;;;;;7.00;4.53;;;;;;;;;;5094681;28;20959;-64
2023/03/18 09:37:10;;;;;;;4.77;4.33;;;;;;;;;;5094613;28;20455;-64
2023/03/18 09:39:38;;;;;;;5.03;4.60;;;;;;;;;;5094410;28;20483;-64
2023/03/18 09:42:14;;;;;;;7.87;5.30;;;;;;;;;;5094390;28;20458;-64
2023/03/18 09:44:42;;;;;;;7.10;5.23;;;;;;;;;;5094654;28;20443;-64
2023/03/18 09:47:29;;;;;;;10.60;4.60;;;;;;;;;;5094398;28;20447;-64
2023/03/18 09:50:02;;;;;;;4.80;4.40;;;;;;;;;;5094150;28;20961;-65
2023/03/18 09:52:30;;;;;;;4.87;4.47;;;;;;;;;;5094205;28;21007;-64
2023/03/18 09:55:01;;;;;;;6.13;4.50;;;;;;;;;;5094349;28;20453;-64
2023/03/18 09:57:30;;;;;;;7.80;4.60;;;;;;;;;;5094351;28;20458;-64
2023/03/18 10:00:00;;;;;;;6.57;4.20;;;;;;;;;;5093901;28;21015;-64
2023/03/18 10:02:32;;;;;;;5.03;4.50;;;;;;;;;;5094070;28;20450;-65
2023/03/18 10:05:02;;;;;;;5.20;4.80;;;;;;;;;;5093991;28;20447;-64
2023/03/18 10:07:31;;;;;;;7.00;5.00;;;;;;;;;;5094106;28;20792;-65
2023/03/18 10:10:03;;;;;;;6.57;4.60;;;;;;;;;;5093695;28;20955;-64
2023/03/18 10:12:31;;;;;;;8.33;4.53;;;;;;;;;;5094015;28;20443;-64
2023/03/18 10:15:04;;;;;;;6.37;5.43;;;;;;;;;;5093846;28;20482;-64
2023/03/18 10:17:32;;;;;;;9.50;5.23;;;;;;;;;;5093585;28;20476;-64
2023/03/18 10:20:03;;;;;;;4.90;4.40;;;;;;;;;;5093800;28;20561;-64
2023/03/18 10:22:36;;;;;;;9.27;5.13;;;;;;;;;;5093785;28;20506;-64
2023/03/18 10:25:09;;;;;;;7.17;4.97;;;;;;;;;;5093746;28;20452;-65
2023/03/18 10:27:41;;;;;;;5.57;4.37;;;;;;;;;;5093606;28;20483;-64
2023/03/18 10:30:19;;;;;;;5.47;4.70;;;;;;;;;;5093353;28;20488;-64
2023/03/18 10:32:52;;;;;;;5.70;4.70;;;;;;;;;;5093398;28;20455;-64
2023/03/18 10:35:26;;;;;;;8.53;4.60;;;;;;;;;;5093615;28;20942;-65
2023/03/18 10:37:57;;;;;;;5.80;4.97;;;;;;;;;;5093602;28;20538;-64
2023/03/18 10:40:35;;;;;;;5.30;4.80;;;;;;;;;;5093172;28;20480;-65
2023/03/18 10:43:03;;;;;;;7.67;4.67;;;;;;;;;;5093435;28;20447;-65
2023/03/18 10:45:31;;;;;;;5.40;4.43;;;;;;;;;;5092677;28;20952;-65
2023/03/18 10:48:00;;;;;;;5.43;3.93;;;;;;;;;;5092803;28;20550;-65
2023/03/18 10:50:32;;;;;;;5.50;4.10;;;;;;;;;;5092656;28;20555;-65
2023/03/18 10:53:01;;;;;;;4.63;4.23;;;;;;;;;;5092857;28;20454;-65
2023/03/18 10:55:31;;;;;;;7.67;4.47;;;;;;;;;;5092794;28;20484;-65
2023/03/18 10:57:58;;;;;;;5.27;4.30;;;;;;;;;;5092727;28;20449;-65
2023/03/18 11:00:27;;;;;;;7.63;4.43;;;;;;;;;;5092333;28;21012;-65
2023/03/18 11:02:55;;;;;;;6.07;3.87;;;;;;;;;;5092559;28;20498;-65
2023/03/18 11:05:23;;;;;;;6.60;3.77;;;;;;;;;;5092372;28;20457;-65
2023/03/18 11:07:56;;;;;;;5.67;4.23;;;;;;;;;;5092465;28;20445;-65
2023/03/18 11:10:25;;;;;;;6.20;4.93;;;;;;;;;;5092728;28;20559;-64
2023/03/18 11:12:58;;;;;;;9.80;4.10;;;;;;;;;;5092440;28;20448;-65
2023/03/18 11:15:25;;;;;;;5.73;4.70;;;;;;;;;;5092527;28;20456;-65
2023/03/18 11:17:53;;;;;;;9.90;6.80;;;;;;;;;;5092004;28;20566;-65
2023/03/18 11:20:23;;;;;;;6.30;4.13;;;;;;;;;;5092508;28;20951;-65
2023/03/18 11:22:51;;;;;;;6.40;4.43;;;;;;;;;;5092556;28;20449;-65
2023/03/18 11:25:19;;;;;;;7.27;3.80;;;;;;;;;;5092392;28;20482;-65
2023/03/18 11:27:47;;;;;;;7.23;5.20;;;;;;;;;;5092475;28;20458;-65
2023/03/18 11:30:17;;;;;;;6.40;5.00;;;;;;;;;;5092346;28;20528;-65
2023/03/18 11:32:52;;;;;;;7.20;5.53;;;;;;;;;;5092333;28;20447;-65
2023/03/18 11:35:20;;;;;;;9.30;5.13;;;;;;;;;;5092632;28;20457;-65
2023/03/18 11:37:47;;;;;;;11.13;5.20;;;;;;;;;;5092339;28;20450;-65
2023/03/18 11:40:19;;;;;;;5.50;4.50;;;;;;;;;;5092071;28;20468;-65
2023/03/18 11:42:47;;;;;;;5.87;4.30;;;;;;;;;;5092253;28;20891;-65
2023/03/18 11:45:28;;;;;;;5.77;4.30;;;;;;;;;;5092522;28;20450;-65
2023/03/18 11:47:56;;;;;;;6.03;4.07;;;;;;;;;;5096370;28;20507;-65
2023/03/18 11:50:24;;;;;;;7.67;3.53;;;;;;;;;;5096124;28;20797;-65
2023/03/18 11:52:54;;;;;;;5.50;3.77;;;;;;;;;;5096084;28;20815;-65
2023/03/18 11:55:26;;;;;;;7.90;4.50;;;;;;;;;;5096169;28;20448;-65
2023/03/18 11:58:22;;;;;;;5.47;3.60;;;;;;;;;;5096179;28;20544;-65
2023/03/18 12:00:54;;;;;;;4.90;3.57;;;;;;;;;;5096049;28;20509;-65
2023/03/18 12:03:30;;;;;;;4.03;3.20;;;;;;;;;;5096010;28;20457;-65
2023/03/18 12:06:04;;;;;;;3.60;3.27;;;;;;;;;;5095682;28;20464;-65
2023/03/18 12:08:34;;;;;;;3.60;3.30;;;;;;;;;;5095963;28;20478;-65
2023/03/18 12:11:06;;;;;;;6.20;3.67;;;;;;;;;;5095749;28;20453;-65
2023/03/18 12:13:35;;;;;;;10.10;3.67;;;;;;;;;;5095726;28;20811;-65
2023/03/18 12:16:08;;;;;;;4.57;3.27;;;;;;;;;;5095833;28;20547;-65
2023/03/18 12:18:45;;;;;;;7.60;3.20;;;;;;;;;;5095427;28;20573;-65
2023/03/18 12:21:36;;;;;;;3.63;3.20;;;;;;;;;;5095636;28;20985;-65
2023/03/18 12:24:09;;;;;;;5.70;3.03;;;;;;;;;;5095812;28;20536;-65
2023/03/18 12:26:40;;;;;;;5.27;3.80;;;;;;;;;;5095494;28;20460;-65
2023/03/18 12:29:28;;;;;;;5.93;3.13;;;;;;;;;;5095640;28;20522;-65
2023/03/18 12:32:01;;;;;;;4.33;3.40;;;;;;;;;;5078034;28;20457;-65
2023/03/18 12:34:34;;;;;;;4.30;3.10;;;;;;;;;;5095493;28;20549;-65
2023/03/18 12:37:08;;;;;;;3.23;2.60;;;;;;;;;;5095170;28;20453;-65
2023/03/18 12:39:46;;;;;;;3.00;2.70;;;;;;;;;;5095379;28;20860;-65
2023/03/18 12:42:17;;;;;;;4.50;3.03;;;;;;;;;;5095510;28;20461;-65
2023/03/18 12:44:48;;;;;;;2.90;2.70;;;;;;;;;;5095366;28;20467;-65
2023/03/18 12:47:20;;;;;;;6.60;3.33;;;;;;;;;;5095059;28;20952;-65
2023/03/18 12:49:48;;;;;;;4.63;3.03;;;;;;;;;;5094974;28;20450;-65
2023/03/18 12:52:24;;;;;;;3.10;2.80;;;;;;;;;;5095185;28;20461;-65
2023/03/18 12:54:56;;;;;;;4.53;2.97;;;;;;;;;;5095201;28;20466;-65
2023/03/18 12:57:26;;;;;;;7.30;3.33;;;;;;;;;;5094665;28;20537;-65
2023/03/18 12:59:56;;;;;;;3.40;3.00;;;;;;;;;;5094722;28;20786;-65
2023/03/18 13:02:40;;;;;;;3.43;3.10;;;;;;;;;;5095028;28;20466;-65
2023/03/18 13:05:13;;;;;;;4.40;3.00;;;;;;;;;;5095295;28;20993;-65
2023/03/18 13:07:43;;;;;;;3.53;2.23;;;;;;;;;;5094895;28;20469;-65
2023/03/18 13:10:19;;;;;;;4.17;3.13;;;;;;;;;;5094757;28;20450;-65
2023/03/18 13:12:46;;;;;;;2.80;2.57;;;;;;;;;;5094841;28;20489;-65
2023/03/18 13:15:18;;;;;;;5.67;2.90;;;;;;;;;;5094848;28;20453;-65
2023/03/18 13:17:48;;;;;;;4.40;3.20;;;;;;;;;;5094555;28;20989;-65
2023/03/18 13:20:16;;;;;;;7.23;3.50;;;;;;;;;;5094230;28;20940;-65
2023/03/18 13:22:53;;;;;;;7.50;6.10;;;;;;;;;;5094290;28;20457;-65
2023/03/18 13:25:26;;;;;;;5.37;3.60;;;;;;;;;;5094304;28;20457;-65
2023/03/18 13:28:02;;;;;;;3.13;2.83;;;;;;;;;;5094466;28;20446;-65
2023/03/18 13:30:34;;;;;;;3.83;2.60;;;;;;;;;;5094383;28;20463;-65
2023/03/18 13:33:11;;;;;;;4.33;3.70;;;;;;;;;;5094607;28;20447;-65
2023/03/18 13:35:55;;;;;;;4.30;3.10;;;;;;;;;;5094514;28;20434;-65
2023/03/18 13:38:49;;;;;;;5.10;3.40;;;;;;;;;;5094454;28;20870;-65
2023/03/18 13:41:31;;;;;;;4.37;3.00;;;;;;;;;;5069363;28;20557;-65
2023/03/18 13:43:59;;;;;;;4.60;2.93;;;;;;;;;;5094295;28;20508;-65
2023/03/18 13:46:28;;;;;;;5.30;3.13;;;;;;;;;;5094041;28;20542;-65
2023/03/18 13:48:57;;;;;;;4.23;3.83;;;;;;;;;;5094103;28;20548;-65
2023/03/18 13:51:39;;;;;;;3.70;3.23;;;;;;;;;;5093828;28;20511;-65
2023/03/18 13:54:12;;;;;;;3.43;3.13;;;;;;;;;;5093683;28;20481;-65
2023/03/18 13:56:47;;;;;;;3.83;3.13;;;;;;;;;;5093924;28;20544;-65
2023/03/18 13:59:29;;;;;;;6.33;4.00;;;;;;;;;;5093570;28;20629;-64
2023/03/18 14:01:58;;;;;;;4.80;3.57;;;;;;;;;;5093419;28;20481;-65
2023/03/18 14:04:31;;;;;;;6.00;3.50;;;;;;;;;;5093502;28;20852;-65
2023/03/18 14:07:12;;;;;;;6.40;3.70;;;;;;;;;;5093847;28;20457;-65
2023/03/18 14:09:48;;;;;;;4.20;2.97;;;;;;;;;;5092995;28;20454;-65
2023/03/18 14:12:19;;;;;;;4.67;3.00;;;;;;;;;;5093646;28;20458;-65
2023/03/18 14:15:06;;;;;;;6.33;3.70;;;;;;;;;;5093391;28;20975;-65
2023/03/18 14:17:44;;;;;;;3.63;3.33;;;;;;;;;;5093305;28;20553;-65
2023/03/18 14:20:21;;;;;;;8.57;4.13;;;;;;;;;;5093483;28;20450;-65
2023/03/18 14:22:49;;;;;;;8.60;3.70;;;;;;;;;;5093383;28;20503;-65
2023/03/18 14:25:21;;;;;;;3.43;3.17;;;;;;;;;;5093565;28;20558;-65
2023/03/18 14:27:50;;;;;;;3.27;3.07;;;;;;;;;;5093590;28;20447;-65
2023/03/18 14:30:35;;;;;;;3.50;3.17;;;;;;;;;;5093166;28;20443;-65
2023/03/18 14:33:04;;;;;;;4.53;2.97;;;;;;;;;;5093200;28;20842;-65
2023/03/18 14:35:34;;;;;;;4.10;3.03;;;;;;;;;;5093025;28;20540;-65
2023/03/18 14:38:02;;;;;;;4.60;3.27;;;;;;;;;;5092900;28;20537;-65
2023/03/18 14:40:31;;;;;;;2.47;2.27;;;;;;;;;;5093062;28;20450;-65
2023/03/18 14:42:59;;;;;;;5.50;2.70;;;;;;;;;;5093425;28;20447;-65
2023/03/18 14:45:28;;;;;;;3.57;2.57;;;;;;;;;;5092985;28;20454;-65
2023/03/18 14:47:58;;;;;;;5.87;2.97;;;;;;;;;;5093160;28;20450;-65
2023/03/18 14:50:29;;;;;;;4.63;3.40;;;;;;;;;;5092946;28;20449;-65
2023/03/18 14:53:02;;;;;;;6.73;2.80;;;;;;;;;;5092756;28;20964;-65
2023/03/18 14:55:31;;;;;;;3.10;2.80;;;;;;;;;;5092921;28;20910;-65